Time;durP1;ratioP1;P1;durP2;ratioP2;P2;SDS_P1;SDS_P2;PMS_P1;PMS_P2;Temp;Humidity;BMP_temperature;BMP_pressure;BME280_temperature;BME280_humidity;BME280_pressure;Samples;Min_cycle;Max_cycle;Signal;HPM_P1;HPM_P2
2023/12/29 00:02:08;;;;;;;42.20;26.70;;;;;;;-0.99;100.00;101195.11;109269;1243;71811;-73
2023/12/29 00:04:37;;;;;;;40.10;24.60;;;;;;;-1.01;100.00;101188.65;109156;1247;60488;-73
2023/12/29 00:07:06;;;;;;;41.30;25.40;;;;;;;-1.06;100.00;101177.79;109202;1243;60887;-73
2023/12/29 00:09:40;;;;;;;39.10;24.40;;;;;;;-1.07;100.00;101179.52;109155;1244;73289;-74
2023/12/29 00:12:10;;;;;;;41.10;24.90;;;;;;;-1.12;100.00;101185.23;109215;1244;71508;-73
2023/12/29 00:14:40;;;;;;;39.20;25.70;;;;;;;-1.13;100.00;101187.14;109213;1244;69360;-73
2023/12/29 00:17:09;;;;;;;51.20;30.80;;;;;;;-1.19;100.00;101187.56;109210;1245;74146;-73
2023/12/29 00:19:38;;;;;;;42.10;24.90;;;;;;;-1.16;100.00;101191.63;109137;1247;61479;-73
2023/12/29 00:22:07;;;;;;;41.40;24.30;;;;;;;-1.12;100.00;101189.67;109368;1244;58732;-74
2023/12/29 00:24:36;;;;;;;35.50;21.00;;;;;;;-1.10;100.00;101189.48;109377;1244;70735;-73
2023/12/29 00:27:05;;;;;;;37.00;21.10;;;;;;;-1.10;100.00;101186.57;109393;1244;71503;-74
2023/12/29 00:29:34;;;;;;;32.50;21.40;;;;;;;-1.13;100.00;101182.17;109328;1244;71656;-73
2023/12/29 00:32:04;;;;;;;32.80;19.90;;;;;;;-1.16;100.00;101183.77;109208;1247;72365;-74
2023/12/29 00:34:34;;;;;;;36.80;22.00;;;;;;;-1.16;100.00;101181.38;109339;1244;61174;-72
2023/12/29 00:37:03;;;;;;;60.00;31.20;;;;;;;-1.20;100.00;101182.13;109199;1244;59998;-72
2023/12/29 00:39:38;;;;;;;61.90;31.60;;;;;;;-1.21;100.00;101188.96;109191;1247;71476;-72
2023/12/29 00:42:08;;;;;;;57.60;31.10;;;;;;;-1.22;100.00;101191.22;109226;1244;72161;-72
2023/12/29 00:44:37;;;;;;;61.70;33.20;;;;;;;-1.24;100.00;101184.94;109173;1244;70886;-73
2023/12/29 00:47:05;;;;;;;58.90;33.00;;;;;;;-1.25;100.00;101182.21;109183;1244;73449;-72
2023/12/29 00:49:38;;;;;;;51.80;29.80;;;;;;;-1.32;100.00;101184.02;109190;1245;60866;-72
2023/12/29 00:52:07;;;;;;;42.90;24.60;;;;;;;-1.39;100.00;101185.51;109187;1244;61224;-71
2023/12/29 00:54:36;;;;;;;40.80;24.00;;;;;;;-1.42;100.00;101184.87;109041;1246;72071;-71
2023/12/29 00:57:05;;;;;;;43.60;25.60;;;;;;;-1.43;100.00;101187.27;109118;1245;70274;-71
2023/12/29 00:59:39;;;;;;;49.50;27.50;;;;;;;-1.44;100.00;101182.66;109142;1244;69729;-72
2023/12/29 01:02:08;;;;;;;48.40;27.50;;;;;;;-1.44;100.00;101186.44;109001;1246;73402;-72
2023/12/29 01:04:39;;;;;;;54.30;33.50;;;;;;;-1.42;100.00;101183.33;109126;1244;61274;-71
2023/12/29 01:07:08;;;;;;;49.60;29.70;;;;;;;-1.44;100.00;101182.50;109024;1247;59976;-72
2023/12/29 01:09:40;;;;;;;77.00;46.20;;;;;;;-1.50;100.00;101170.64;109130;1244;70852;-70
2023/12/29 01:12:09;;;;;;;55.20;33.20;;;;;;;-1.49;100.00;101166.52;109108;1244;72163;-73
2023/12/29 01:14:37;;;;;;;50.00;28.90;;;;;;;-1.48;100.00;101162.91;109238;1244;70644;-72
2023/12/29 01:17:07;;;;;;;45.10;26.00;;;;;;;-1.52;100.00;101159.90;109205;1244;70872;-73
2023/12/29 01:19:36;;;;;;;42.30;24.20;;;;;;;-1.54;100.00;101158.91;109212;1245;59518;-72
2023/12/29 01:22:05;;;;;;;44.50;28.90;;;;;;;-1.56;100.00;101159.11;109181;1244;60265;-74
2023/12/29 01:24:33;;;;;;;42.20;26.60;;;;;;;-1.57;100.00;101149.73;109262;1243;73939;-71
2023/12/29 01:27:13;;;;;;;37.90;23.60;;;;;;;-1.59;100.00;101149.23;109262;1246;69830;-73
2023/12/29 01:29:42;;;;;;;39.50;26.80;;;;;;;-1.64;100.00;101154.44;109124;1247;68433;-72
2023/12/29 01:32:11;;;;;;;43.60;27.70;;;;;;;-1.62;100.00;101157.48;109244;1246;71814;-74
2023/12/29 01:34:40;;;;;;;35.10;20.40;;;;;;;-1.60;100.00;101155.92;109157;1247;61644;-73
2023/12/29 01:37:09;;;;;;;39.40;23.90;;;;;;;-1.61;100.00;101159.19;109155;1244;61515;-74
2023/12/29 01:39:39;;;;;;;37.80;21.70;;;;;;;-1.63;100.00;101158.70;109244;1245;71669;-75
2023/12/29 01:42:08;;;;;;;35.90;20.30;;;;;;;-1.66;100.00;101153.11;109346;1244;72170;-73
2023/12/29 01:44:37;;;;;;;39.30;22.00;;;;;;;-1.67;100.00;101150.23;109376;1247;70061;-72
2023/12/29 01:47:15;;;;;;;40.30;23.80;;;;;;;-1.70;100.00;101151.64;109374;1246;71882;-73
2023/12/29 01:49:46;;;;;;;59.80;31.70;;;;;;;-1.71;100.00;101146.35;109257;1248;60312;-73
2023/12/29 01:52:17;;;;;;;55.20;31.20;;;;;;;-1.72;100.00;101136.29;109415;1245;59653;-73
2023/12/29 01:54:49;;;;;;;54.90;29.60;;;;;;;-1.78;100.00;101141.33;109459;1243;71768;-74
2023/12/29 01:57:18;;;;;;;56.80;31.70;;;;;;;-1.83;100.00;101141.08;109435;1245;69936;-73
2023/12/29 01:59:48;;;;;;;57.90;31.60;;;;;;;-1.86;100.00;101143.50;109337;1247;67740;-72
2023/12/29 02:02:17;;;;;;;59.70;33.00;;;;;;;-1.96;100.00;101137.33;109347;1244;72070;-73
2023/12/29 02:04:47;;;;;;;50.70;30.60;;;;;;;-2.00;100.00;101146.59;109393;1244;60351;-72
2023/12/29 02:07:16;;;;;;;56.00;29.30;;;;;;;-2.01;100.00;101147.98;109344;1244;58638;-73
2023/12/29 02:09:46;;;;;;;52.80;29.40;;;;;;;-2.00;100.00;101147.45;109406;1244;71516;-73
2023/12/29 02:12:15;;;;;;;51.40;30.50;;;;;;;-2.06;100.00;101145.14;109397;1246;68365;-73
2023/12/29 02:14:44;;;;;;;52.90;27.60;;;;;;;-2.10;100.00;101150.83;109387;1244;67541;-73
2023/12/29 02:17:27;;;;;;;38.90;23.90;;;;;;;-2.11;100.00;101150.31;109371;1246;72973;-74
2023/12/29 02:19:57;;;;;;;51.70;29.30;;;;;;;-2.08;100.00;101147.40;109317;1247;61000;-74
2023/12/29 02:22:26;;;;;;;59.40;32.90;;;;;;;-2.09;100.00;101144.67;109351;1244;61253;-75
2023/12/29 02:24:55;;;;;;;42.10;24.70;;;;;;;-2.13;100.00;101143.19;109415;1244;71233;-74
2023/12/29 02:27:49;;;;;;;58.40;32.70;;;;;;;-2.14;100.00;101137.41;109439;1244;70164;-74
2023/12/29 02:30:37;;;;;;;43.40;25.50;;;;;;;-2.12;100.00;101137.55;109415;1247;68256;-74
2023/12/29 02:33:10;;;;;;;35.50;21.80;;;;;;;-2.09;100.00;101137.34;109277;1244;72848;-74
2023/12/29 02:35:43;;;;;;;41.10;25.20;;;;;;;-2.13;100.00;101138.58;109328;1247;60632;-73
2023/12/29 02:38:13;;;;;;;40.30;24.00;;;;;;;-2.16;100.00;101140.66;109285;1244;59460;-74
2023/12/29 02:40:41;;;;;;;54.10;27.30;;;;;;;-2.16;100.00;101139.13;109119;1249;74045;-73
2023/12/29 02:43:11;;;;;;;53.30;30.90;;;;;;;-2.17;100.00;101139.13;109215;1244;72526;-72
2023/12/29 02:45:40;;;;;;;45.40;27.70;;;;;;;-2.22;100.00;101144.48;109071;1246;69388;-72
2023/12/29 02:48:09;;;;;;;48.70;27.40;;;;;;;-2.22;100.00;101139.55;109252;1244;74773;-71
2023/12/29 02:50:38;;;;;;;55.10;31.80;;;;;;;-2.25;100.00;101139.08;109234;1245;62220;-72
2023/12/29 02:53:08;;;;;;;56.80;31.70;;;;;;;-2.31;100.00;101140.86;109278;1244;59092;-72
2023/12/29 02:55:37;;;;;;;54.80;29.60;;;;;;;-2.33;100.00;101137.98;109209;1244;72186;-72
2023/12/29 02:58:06;;;;;;;39.50;24.60;;;;;;;-2.34;100.00;101143.45;109271;1244;71254;-71
2023/12/29 03:00:35;;;;;;;52.60;29.60;;;;;;;-2.32;100.00;101149.40;109391;1247;68675;-73
2023/12/29 03:03:05;;;;;;;49.70;28.60;;;;;;;-2.28;100.00;101149.52;109377;1246;71836;-73
2023/12/29 03:05:34;;;;;;;59.20;32.10;;;;;;;-2.30;100.00;101150.23;109219;1247;61079;-73
2023/12/29 03:08:03;;;;;;;60.70;33.40;;;;;;;-2.40;100.00;101147.27;109332;1244;61013;-72
2023/12/29 03:10:32;;;;;;;57.70;33.40;;;;;;;-2.42;100.00;101152.25;109239;1244;73991;-72
2023/12/29 03:13:02;;;;;;;60.30;33.40;;;;;;;-2.43;100.00;101160.79;109192;1244;73217;-72
2023/12/29 03:15:31;;;;;;;60.40;34.20;;;;;;;-2.45;100.00;101164.23;109198;1247;68924;-73
2023/12/29 03:18:00;;;;;;;61.10;32.90;;;;;;;-2.43;100.00;101162.48;109140;1247;72507;-71
2023/12/29 03:20:29;;;;;;;58.40;33.40;;;;;;;-2.41;100.00;101162.30;109237;1246;60257;-72
2023/12/29 03:22:58;;;;;;;54.00;31.00;;;;;;;-2.37;100.00;101157.81;109234;1245;58667;-71
2023/12/29 03:25:27;;;;;;;70.70;33.50;;;;;;;-2.31;100.00;101151.27;109188;1245;73528;-73
2023/12/29 03:27:55;;;;;;;66.70;34.10;;;;;;;-2.33;100.00;101159.98;109167;1247;70862;-72
2023/12/29 03:30:24;;;;;;;54.70;30.00;;;;;;;-2.28;100.00;101169.83;109181;1247;68765;-75
2023/12/29 03:32:53;;;;;;;61.50;32.30;;;;;;;-2.30;100.00;101165.93;109225;1245;71883;-74
2023/12/29 03:35:22;;;;;;;61.90;31.70;;;;;;;-2.45;100.00;101164.05;109276;1244;61956;-74
2023/12/29 03:37:50;;;;;;;67.20;35.00;;;;;;;-2.42;100.00;101167.27;109388;1247;61948;-75
2023/12/29 03:40:19;;;;;;;63.00;34.90;;;;;;;-2.40;100.00;101166.71;109357;1245;72018;-73
2023/12/29 03:42:48;;;;;;;72.60;35.70;;;;;;;-2.43;100.00;101160.95;109363;1244;70126;-75
2023/12/29 03:45:17;;;;;;;65.60;35.80;;;;;;;-2.42;100.00;101165.38;109374;1244;68912;-73
2023/12/29 03:47:45;;;;;;;56.10;32.50;;;;;;;-2.38;100.00;101166.52;109385;1244;73544;-73
2023/12/29 03:50:14;;;;;;;62.00;33.80;;;;;;;-2.35;100.00;101159.84;109356;1246;62908;-74
2023/12/29 03:52:43;;;;;;;66.50;36.10;;;;;;;-2.37;100.00;101156.98;109314;1245;58971;-72
2023/12/29 03:55:12;;;;;;;65.50;37.50;;;;;;;-2.31;100.00;101164.92;109234;1246;70741;-72
2023/12/29 03:57:43;;;;;;;53.50;31.00;;;;;;;-2.30;100.00;101163.70;109111;1245;71267;-73
2023/12/29 04:00:14;;;;;;;59.40;32.20;;;;;;;-2.30;100.00;101159.09;109008;1244;70911;-73
2023/12/29 04:02:44;;;;;;;59.20;33.90;;;;;;;-2.28;100.00;101154.64;109143;1246;72213;-72
2023/12/29 04:05:13;;;;;;;53.40;29.80;;;;;;;-2.28;100.00;101156.17;109138;1246;61925;-72
2023/12/29 04:07:41;;;;;;;53.80;26.90;;;;;;;-2.27;100.00;101160.42;109156;1245;61448;-72
2023/12/29 04:10:10;;;;;;;51.20;27.80;;;;;;;-2.29;100.00;101156.87;109289;1243;73950;-74
2023/12/29 04:12:39;;;;;;;49.20;27.10;;;;;;;-2.31;100.00;101153.48;109142;1245;70129;-73
2023/12/29 04:15:09;;;;;;;52.70;30.60;;;;;;;-2.35;100.00;101161.21;109116;1244;69028;-73
2023/12/29 04:17:38;;;;;;;47.00;27.10;;;;;;;-2.38;100.00;101166.02;109008;1245;72876;-73
2023/12/29 04:20:07;;;;;;;56.70;30.70;;;;;;;-2.32;100.00;101167.99;109069;1244;62288;-73
2023/12/29 04:22:36;;;;;;;64.20;32.30;;;;;;;-2.29;100.00;101170.52;109229;1245;59857;-72
2023/12/29 04:25:05;;;;;;;69.70;36.60;;;;;;;-2.35;100.00;101164.27;109236;1245;72522;-72
2023/12/29 04:27:36;;;;;;;66.00;33.70;;;;;;;-2.41;100.00;101162.30;109066;1244;70694;-72
2023/12/29 04:30:05;;;;;;;77.00;38.20;;;;;;;-2.40;100.00;101163.15;109184;1244;69565;-72
2023/12/29 04:32:34;;;;;;;68.40;35.10;;;;;;;-2.40;100.00;101168.94;109267;1245;72932;-73
2023/12/29 04:35:04;;;;;;;80.80;40.70;;;;;;;-2.44;100.00;101173.25;109266;1245;59514;-72
2023/12/29 04:37:32;;;;;;;64.40;36.10;;;;;;;-2.50;100.00;101175.20;109288;1244;61080;-73
2023/12/29 04:40:01;;;;;;;65.70;34.50;;;;;;;-2.42;100.00;101172.55;109408;1244;72234;-72
2023/12/29 04:42:30;;;;;;;61.00;32.80;;;;;;;-2.40;100.00;101167.23;109451;1245;70313;-72
2023/12/29 04:44:59;;;;;;;66.90;36.10;;;;;;;-2.40;100.00;101167.23;109435;1244;68342;-72
2023/12/29 04:47:28;;;;;;;87.10;41.20;;;;;;;-2.45;100.00;101171.89;109396;1244;73843;-73
2023/12/29 04:49:57;;;;;;;68.10;36.50;;;;;;;-2.40;100.00;101174.74;109450;1246;62237;-73
2023/12/29 04:52:26;;;;;;;62.30;34.50;;;;;;;-2.39;100.00;101176.26;109402;1244;60870;-73
2023/12/29 04:54:54;;;;;;;60.30;33.00;;;;;;;-2.36;100.00;101175.38;109360;1244;73958;-73
2023/12/29 04:57:23;;;;;;;67.90;36.30;;;;;;;-2.39;100.00;101175.77;109352;1244;70046;-71
2023/12/29 04:59:52;;;;;;;64.60;33.60;;;;;;;-2.32;100.00;101184.39;109416;1244;68051;-71
2023/12/29 05:02:21;;;;;;;69.10;35.10;;;;;;;-2.30;100.00;101186.74;109432;1246;72871;-72
2023/12/29 05:04:50;;;;;;;64.10;33.90;;;;;;;-2.32;100.00;101189.33;109346;1247;60950;-75
2023/12/29 05:07:19;;;;;;;66.90;34.20;;;;;;;-2.33;100.00;101191.04;109421;1246;61717;-75
2023/12/29 05:09:48;;;;;;;58.00;29.40;;;;;;;-2.37;100.00;101191.09;109429;1245;74115;-73
2023/12/29 05:12:16;;;;;;;67.40;32.00;;;;;;;-2.46;100.00;101192.20;109451;1245;71638;-73
2023/12/29 05:14:45;;;;;;;63.90;31.30;;;;;;;-2.56;100.00;101192.31;109422;1244;69347;-74
2023/12/29 05:17:14;;;;;;;48.50;26.30;;;;;;;-2.70;100.00;101189.40;109433;1244;71204;-74
2023/12/29 05:19:43;;;;;;;64.10;33.10;;;;;;;-2.75;100.00;101200.52;109422;1245;60069;-74
2023/12/29 05:22:15;;;;;;;60.20;30.80;;;;;;;-2.80;100.00;101201.09;109415;1247;58894;-75
2023/12/29 05:24:45;;;;;;;56.00;29.20;;;;;;;-2.83;100.00;101203.52;109417;1244;71587;-75
2023/12/29 05:27:14;;;;;;;67.80;34.10;;;;;;;-2.84;100.00;101204.36;109408;1245;72001;-74
2023/12/29 05:29:42;;;;;;;65.50;35.50;;;;;;;-2.86;100.00;101208.64;109430;1244;70225;-74
2023/12/29 05:32:11;;;;;;;72.40;37.60;;;;;;;-2.88;100.00;101209.68;109435;1244;73177;-76
2023/12/29 05:34:40;;;;;;;68.20;37.00;;;;;;;-2.84;100.00;101208.80;109461;1245;59828;-74
2023/12/29 05:37:09;;;;;;;65.70;31.60;;;;;;;-2.83;100.00;101205.02;109474;1244;58650;-74
2023/12/29 05:39:42;;;;;;;61.00;31.90;;;;;;;-2.77;100.00;101208.23;109472;1246;69879;-73
2023/12/29 05:42:11;;;;;;;69.00;33.90;;;;;;;-2.81;100.00;101209.97;109443;1244;69665;-73
2023/12/29 05:44:40;;;;;;;67.00;32.90;;;;;;;-2.87;100.00;101213.60;109471;1245;69503;-74
2023/12/29 05:47:09;;;;;;;76.30;37.70;;;;;;;-2.92;100.00;101218.08;109481;1244;74191;-72
2023/12/29 05:49:39;;;;;;;68.80;36.70;;;;;;;-2.94;100.00;101216.73;109400;1247;62560;-73
2023/12/29 05:52:08;;;;;;;74.20;39.00;;;;;;;-2.90;100.00;101213.11;109459;1244;59028;-73
2023/12/29 05:54:37;;;;;;;69.00;37.10;;;;;;;-2.81;100.00;101217.96;109385;1243;71036;-74
2023/12/29 05:57:06;;;;;;;70.20;37.80;;;;;;;-2.73;100.00;101219.94;109427;1244;69397;-72
2023/12/29 05:59:35;;;;;;;75.80;39.60;;;;;;;-2.63;100.00;101225.30;109478;1245;69504;-73
2023/12/29 06:02:03;;;;;;;75.90;40.70;;;;;;;-2.52;100.00;101224.85;109448;1244;74273;-71
2023/12/29 06:04:32;;;;;;;73.70;37.80;;;;;;;-2.43;100.00;101223.73;109365;1247;61474;-72
2023/12/29 06:07:01;;;;;;;65.80;37.20;;;;;;;-2.41;100.00;101217.23;109438;1244;58699;-72
2023/12/29 06:09:30;;;;;;;75.50;40.50;;;;;;;-2.35;100.00;101211.02;109453;1244;71553;-72
2023/12/29 06:11:59;;;;;;;65.30;35.40;;;;;;;-2.29;100.00;101210.10;109354;1244;72189;-73
2023/12/29 06:14:28;;;;;;;62.20;32.00;;;;;;;-2.22;100.00;101209.35;109495;1244;70007;-71
2023/12/29 06:16:56;;;;;;;61.50;35.00;;;;;;;-2.21;100.00;101211.89;109482;1244;72947;-71
2023/12/29 06:19:25;;;;;;;65.20;33.80;;;;;;;-2.13;100.00;101208.21;109441;1245;60911;-71
2023/12/29 06:21:54;;;;;;;69.50;35.10;;;;;;;-2.08;100.00;101211.05;109484;1244;58869;-70
2023/12/29 06:24:23;;;;;;;69.20;35.00;;;;;;;-2.05;100.00;101212.20;109471;1244;70845;-73
2023/12/29 06:26:53;;;;;;;65.90;33.90;;;;;;;-2.01;100.00;101218.12;109424;1244;72212;-73
2023/12/29 06:29:21;;;;;;;72.00;36.00;;;;;;;-1.96;100.00;101220.45;109479;1244;70673;-73
2023/12/29 06:31:50;;;;;;;71.10;37.90;;;;;;;-1.85;100.00;101217.08;109391;1244;71554;-72
2023/12/29 06:34:19;;;;;;;95.60;49.80;;;;;;;-1.73;100.00;101222.20;109460;1245;60420;-74
2023/12/29 06:36:48;;;;;;;113.30;63.90;;;;;;;-1.60;100.00;101223.73;109464;1246;59111;-76
2023/12/29 06:39:17;;;;;;;94.10;50.70;;;;;;;-1.51;100.00;101225.48;109448;1245;70898;-75
2023/12/29 06:41:46;;;;;;;86.50;47.80;;;;;;;-1.38;100.00;101230.77;109473;1244;72760;-75
2023/12/29 06:44:14;;;;;;;77.90;40.80;;;;;;;-1.34;100.00;101229.84;109494;1244;70895;-73
2023/12/29 06:46:43;;;;;;;79.40;45.70;;;;;;;-1.25;100.00;101232.79;109254;1244;72231;-73
2023/12/29 06:49:12;;;;;;;75.60;40.30;;;;;;;-1.22;100.00;101234.98;109401;1245;59587;-70
2023/12/29 06:51:41;;;;;;;73.80;39.30;;;;;;;-1.15;100.00;101230.92;109490;1245;59719;-70
2023/12/29 06:54:10;;;;;;;68.70;39.20;;;;;;;-1.11;100.00;101232.22;109308;1245;70656;-70
2023/12/29 06:56:39;;;;;;;73.10;38.80;;;;;;;-1.08;100.00;101238.33;109353;1245;70645;-70
2023/12/29 06:59:08;;;;;;;66.20;38.00;;;;;;;-1.00;100.00;101243.33;109363;1243;70552;-70
2023/12/29 07:01:42;;;;;;;66.10;37.80;;;;;;;-0.85;100.00;101245.30;109297;1244;74637;-69
2023/12/29 07:04:11;;;;;;;67.30;38.80;;;;;;;-0.74;100.00;101247.01;109393;1244;61742;-78
2023/12/29 07:06:39;;;;;;;73.20;37.10;;;;;;;-0.65;100.00;101245.31;109363;1244;60570;-70
2023/12/29 07:09:09;;;;;;;63.80;37.90;;;;;;;-0.59;100.00;101245.73;109416;1244;73095;-72
2023/12/29 07:11:38;;;;;;;68.30;39.20;;;;;;;-0.51;100.00;101246.94;109331;1247;70393;-69
2023/12/29 07:14:07;;;;;;;65.70;38.40;;;;;;;-0.52;100.00;101244.92;109216;1243;71016;-69
2023/12/29 07:16:35;;;;;;;76.50;40.30;;;;;;;-0.50;100.00;101251.21;109239;1243;74178;-69
2023/12/29 07:19:05;;;;;;;65.50;38.90;;;;;;;-0.41;100.00;101250.54;109252;1244;62302;-69
2023/12/29 07:21:34;;;;;;;68.60;40.60;;;;;;;-0.31;100.00;101251.38;109186;1245;61657;-70
2023/12/29 07:24:03;;;;;;;68.10;39.50;;;;;;;-0.20;100.00;101255.11;109308;1243;74186;-81
2023/12/29 07:26:35;;;;;;;64.00;41.20;;;;;;;-0.03;100.00;101259.91;109227;1244;72180;-78
2023/12/29 07:29:06;;;;;;;70.30;40.40;;;;;;;0.12;100.00;101260.29;109196;1243;68506;-68
2023/12/29 07:31:39;;;;;;;70.00;41.70;;;;;;;0.24;100.00;101266.04;109116;1247;71133;-69
2023/12/29 07:34:08;;;;;;;73.10;41.70;;;;;;;0.42;100.00;101264.13;109142;1244;59172;-69
2023/12/29 07:36:40;;;;;;;71.60;42.20;;;;;;;0.56;100.00;101262.10;109224;1244;59507;-68
2023/12/29 07:39:10;;;;;;;70.60;42.30;;;;;;;0.59;100.00;101261.69;109127;1244;71511;-69
2023/12/29 07:41:42;;;;;;;67.90;40.40;;;;;;;0.77;100.00;101267.11;109034;1243;71419;-69
2023/12/29 07:44:12;;;;;;;80.20;47.60;;;;;;;0.67;100.00;101270.08;109265;1243;68425;-69
2023/12/29 07:46:41;;;;;;;82.40;46.30;;;;;;;0.82;100.00;101273.85;109168;1245;72900;-69
2023/12/29 07:49:10;;;;;;;82.20;49.60;;;;;;;0.81;100.00;101274.55;109120;1245;62041;-70
2023/12/29 07:51:46;;;;;;;77.40;45.90;;;;;;;1.03;100.00;101276.79;109249;1243;59551;-70
2023/12/29 07:54:15;;;;;;;80.90;48.10;;;;;;;1.22;100.00;101273.06;109353;1244;71009;-70
2023/12/29 07:56:44;;;;;;;74.20;45.40;;;;;;;1.34;100.00;101270.86;109312;1247;70169;-69
2023/12/29 07:59:13;;;;;;;76.00;45.80;;;;;;;1.48;100.00;101271.73;109383;1245;69015;-70
2023/12/29 08:01:41;;;;;;;80.70;46.90;;;;;;;1.74;100.00;101269.68;109405;1245;74114;-70
2023/12/29 08:04:10;;;;;;;85.00;49.70;;;;;;;1.69;100.00;101263.45;109384;1245;62477;-69
2023/12/29 08:06:43;;;;;;;87.50;49.60;;;;;;;1.67;100.00;101271.90;109416;1242;60131;-69
2023/12/29 08:09:11;;;;;;;80.60;45.90;;;;;;;1.88;100.00;101274.09;109333;1244;73741;-71
2023/12/29 08:11:42;;;;;;;80.60;50.50;;;;;;;2.11;100.00;101265.38;109346;1245;71045;-70
2023/12/29 08:14:12;;;;;;;82.50;48.50;;;;;;;2.06;100.00;101263.30;109263;1244;70382;-70
2023/12/29 08:16:41;;;;;;;83.20;50.00;;;;;;;2.23;100.00;101256.63;109358;1244;73932;-70
2023/12/29 08:19:10;;;;;;;81.60;49.90;;;;;;;2.26;100.00;101258.42;109406;1244;62356;-70
2023/12/29 08:21:39;;;;;;;89.80;51.30;;;;;;;2.42;100.00;101256.06;109368;1244;59012;-71
2023/12/29 08:24:08;;;;;;;97.40;53.80;;;;;;;2.43;100.00;101257.75;109385;1245;73399;-71
2023/12/29 08:26:46;;;;;;;93.00;54.80;;;;;;;2.60;100.00;101259.81;109406;1244;71715;-69
2023/12/29 08:29:15;;;;;;;89.20;51.30;;;;;;;2.67;100.00;101251.52;109275;1245;70982;-69
2023/12/29 08:31:44;;;;;;;84.40;51.90;;;;;;;3.01;100.00;101263.01;109321;1247;71257;-69
2023/12/29 08:34:13;;;;;;;77.90;48.30;;;;;;;3.09;100.00;101266.88;109360;1245;58696;-69
2023/12/29 08:36:42;;;;;;;82.90;49.00;;;;;;;3.06;100.00;101267.65;109374;1244;59476;-70
2023/12/29 08:39:12;;;;;;;79.90;45.40;;;;;;;3.29;100.00;101266.91;109378;1246;71081;-69
2023/12/29 08:41:40;;;;;;;80.70;47.60;;;;;;;3.44;100.00;101267.44;109376;1244;72008;-70
2023/12/29 08:44:09;;;;;;;83.00;45.20;;;;;;;3.59;100.00;101263.30;109287;1247;69277;-70
2023/12/29 08:46:38;;;;;;;75.00;45.60;;;;;;;3.77;100.00;101258.04;109360;1244;73962;-70
2023/12/29 08:49:07;;;;;;;74.80;44.80;;;;;;;3.77;100.00;101252.33;109373;1245;57175;-69
2023/12/29 08:51:36;;;;;;;74.20;44.60;;;;;;;4.12;100.00;101255.23;109383;1247;57763;-69
2023/12/29 08:54:05;;;;;;;73.70;42.50;;;;;;;4.37;100.00;101258.73;109337;1244;62788;-70
2023/12/29 08:56:34;;;;;;;76.30;42.50;;;;;;;4.55;100.00;101265.15;109366;1245;61037;-69
2023/12/29 08:59:03;;;;;;;64.80;38.80;;;;;;;4.62;100.00;101260.71;109400;1247;60396;-70
2023/12/29 09:01:33;;;;;;;69.50;40.90;;;;;;;4.85;100.00;101248.23;109280;1247;62824;-72
2023/12/29 09:04:02;;;;;;;68.20;41.40;;;;;;;4.96;100.00;101246.41;109282;1246;57727;-70
2023/12/29 09:06:31;;;;;;;71.30;41.40;;;;;;;4.83;100.00;101249.39;109250;1245;57224;-70
2023/12/29 09:09:00;;;;;;;59.10;36.40;;;;;;;5.06;100.00;101246.05;109272;1245;73118;-70
2023/12/29 09:11:29;;;;;;;68.70;37.70;;;;;;;5.23;100.00;101239.45;109174;1244;72587;-70
2023/12/29 09:13:58;;;;;;;69.00;38.60;;;;;;;4.98;100.00;101239.64;109241;1244;70225;-69
2023/12/29 09:16:28;;;;;;;67.40;39.50;;;;;;;5.17;100.00;101237.14;109126;1245;74985;-70
2023/12/29 09:18:57;;;;;;;62.80;38.40;;;;;;;5.23;100.00;101232.88;109112;1244;62477;-68
2023/12/29 09:21:26;;;;;;;68.10;40.20;;;;;;;5.24;100.00;101225.77;109436;1244;60905;-68
2023/12/29 09:23:54;;;;;;;66.00;40.90;;;;;;;5.23;100.00;101227.38;109356;1244;73951;-69
2023/12/29 09:26:23;;;;;;;69.20;42.50;;;;;;;5.36;100.00;101221.10;109383;1249;62912;-70
2023/12/29 09:28:52;;;;;;;74.10;41.80;;;;;;;5.39;100.00;101220.83;109410;1245;59781;-70
2023/12/29 09:31:21;;;;;;;64.60;38.90;;;;;;;5.52;100.00;101222.14;109375;1245;71697;-71
2023/12/29 09:33:50;;;;;;;68.30;41.20;;;;;;;5.75;100.00;101214.25;109383;1244;60199;-72
2023/12/29 09:36:18;;;;;;;67.60;38.70;;;;;;;6.02;100.00;101201.15;109381;1243;61610;-70
2023/12/29 09:38:47;;;;;;;70.30;40.10;;;;;;;6.14;100.00;101194.73;109370;1246;62593;-69
2023/12/29 09:41:19;;;;;;;68.10;38.80;;;;;;;6.15;100.00;101188.59;109317;1247;60734;-70
2023/12/29 09:43:49;;;;;;;67.10;41.90;;;;;;;6.07;100.00;101184.83;109224;1244;69742;-70
2023/12/29 09:46:21;;;;;;;70.20;42.10;;;;;;;6.04;100.00;101178.20;109185;1244;72653;-70
2023/12/29 09:48:52;;;;;;;83.50;44.00;;;;;;;6.19;100.00;101178.38;109136;1248;60845;-70
2023/12/29 09:51:24;;;;;;;75.30;44.80;;;;;;;6.12;100.00;101184.08;109030;1248;57240;-70
2023/12/29 09:53:53;;;;;;;81.50;44.40;;;;;;;6.31;100.00;101191.33;109129;1244;64609;-68
2023/12/29 09:56:22;;;;;;;79.80;46.10;;;;;;;6.46;100.00;101189.26;109213;1244;72412;-70
2023/12/29 09:58:52;;;;;;;88.40;48.30;;;;;;;6.41;100.00;101176.48;109151;1244;70420;-69
2023/12/29 10:01:22;;;;;;;87.20;50.40;;;;;;;6.35;100.00;101171.41;109071;1250;62944;-70
2023/12/29 10:03:51;;;;;;;93.00;51.20;;;;;;;6.44;100.00;101176.02;109083;1246;59040;-69
2023/12/29 10:06:24;;;;;;;91.70;49.60;;;;;;;6.59;100.00;101173.37;109187;1244;60795;-71
2023/12/29 10:08:56;;;;;;;92.00;53.30;;;;;;;6.65;100.00;101163.89;109198;1244;73317;-70
2023/12/29 10:11:26;;;;;;;95.30;52.00;;;;;;;6.73;100.00;101152.27;109127;1248;72648;-71
2023/12/29 10:13:58;;;;;;;97.10;56.40;;;;;;;6.85;100.00;101148.05;108884;1244;307288;-71
2023/12/29 10:16:38;;;;;;;114.70;61.10;;;;;;;6.91;100.00;101149.63;109114;1247;73829;-70
2023/12/29 10:19:17;;;;;;;101.50;59.00;;;;;;;7.09;100.00;101155.30;108947;1252;59938;-70
2023/12/29 10:22:02;;;;;;;121.70;69.70;;;;;;;7.19;100.00;101159.98;109176;1244;60986;-70
2023/12/29 10:24:32;;;;;;;113.00;68.70;;;;;;;7.28;100.00;101151.42;109110;1249;63393;-72
2023/12/29 10:27:01;;;;;;;115.10;69.00;;;;;;;7.44;100.00;101146.38;109095;1244;71386;-71
2023/12/29 10:29:31;;;;;;;108.50;68.60;;;;;;;7.71;100.00;101155.02;109196;1244;70079;-69
2023/12/29 10:32:00;;;;;;;101.60;60.40;;;;;;;7.84;100.00;101168.73;109178;1245;63603;-70
2023/12/29 10:34:29;;;;;;;104.60;62.00;;;;;;;8.14;100.00;101173.50;109160;1245;57645;-70
2023/12/29 10:37:01;;;;;;;106.40;62.60;;;;;;;8.54;100.00;101164.39;109108;1247;57288;-70
2023/12/29 10:39:30;;;;;;;95.00;51.00;;;;;;;9.04;100.00;101160.48;109085;1244;72717;-70
2023/12/29 10:42:09;;;;;;;85.70;51.10;;;;;;;9.14;100.00;101153.27;109199;1244;72538;-74
2023/12/29 10:44:39;;;;;;;78.80;48.30;;;;;;;9.27;100.00;101147.77;109227;1245;59451;-70
2023/12/29 10:47:10;;;;;;;86.00;53.70;;;;;;;9.70;100.00;101133.35;109232;1245;72379;-69
2023/12/29 10:49:42;;;;;;;75.30;47.70;;;;;;;9.98;100.00;101126.74;109223;1245;61703;-70
2023/12/29 10:52:15;;;;;;;77.40;46.70;;;;;;;10.12;100.00;101131.08;108993;1244;57226;-71
2023/12/29 10:54:44;;;;;;;72.40;45.20;;;;;;;9.91;100.00;101119.34;109196;1245;62946;-71
2023/12/29 10:57:14;;;;;;;71.60;43.60;;;;;;;9.76;100.00;101115.95;109152;1245;71395;-70
2023/12/29 10:59:42;;;;;;;72.00;43.10;;;;;;;9.99;100.00;101110.46;109183;1244;69445;-70
2023/12/29 11:02:14;;;;;;;63.40;40.90;;;;;;;10.34;100.00;101103.68;109069;1244;74256;-70
2023/12/29 11:04:43;;;;;;;69.10;43.30;;;;;;;10.90;100.00;101102.27;109127;1248;61091;-70
2023/12/29 11:07:13;;;;;;;71.20;45.00;;;;;;;11.15;100.00;101097.77;109152;1245;57669;-69
2023/12/29 11:09:43;;;;;;;76.20;46.70;;;;;;;10.91;100.00;101098.73;109126;1243;62889;-70